createdAt,value
2022-08-10T00:00:24.374Z,3.50
2022-08-10T00:03:53.057Z,3.60
2022-08-10T00:07:20.775Z,4.00
2022-08-10T00:10:47.829Z,4.60
2022-08-10T00:14:14.987Z,4.30
2022-08-10T00:17:42.516Z,4.00
2022-08-10T00:21:11.190Z,4.60
2022-08-10T00:24:43.036Z,5.10
2022-08-10T00:28:10.571Z,5.20
2022-08-10T00:31:57.679Z,5.10
2022-08-10T00:35:24.744Z,5.80
2022-08-10T00:38:51.821Z,4.90
2022-08-10T00:42:19.545Z,5.30
2022-08-10T00:45:46.801Z,5.70
2022-08-10T00:49:27.043Z,5.50
2022-08-10T00:52:54.612Z,6.30
2022-08-10T00:57:14.983Z,5.90
2022-08-10T01:00:12.612Z,6.70
2022-08-10T01:04:36.135Z,6.30
2022-08-10T01:07:39.731Z,6.50
2022-08-10T01:12:37.441Z,7.20
2022-08-10T01:15:03.289Z,7.30
2022-08-10T01:18:40.134Z,7.20
2022-08-10T01:22:29.361Z,7.00
2022-08-10T01:26:30.721Z,7.00
2022-08-10T01:30:04.010Z,7.30
2022-08-10T01:34:02.332Z,7.00
2022-08-10T01:37:32.708Z,6.80
2022-08-10T01:41:04.635Z,6.90
2022-08-10T01:44:35.659Z,6.40
2022-08-10T01:48:23.360Z,7.40
2022-08-10T01:52:02.514Z,7.70
2022-08-10T01:55:30.893Z,7.60
2022-08-10T01:59:00.104Z,7.40
2022-08-10T02:02:28.738Z,7.80
2022-08-10T02:05:57.831Z,6.60
2022-08-10T02:09:27.784Z,8.10
2022-08-10T02:12:57.747Z,7.60
2022-08-10T02:16:27.045Z,7.20
2022-08-10T02:19:56.997Z,8.70
2022-08-10T02:23:27.208Z,8.60
2022-08-10T02:26:56.398Z,8.50
2022-08-10T02:30:28.057Z,9.90
2022-08-10T02:33:59.484Z,8.90
2022-08-10T02:37:29.575Z,9.50
2022-08-10T02:42:18.826Z,10.10
2022-08-10T02:45:22.448Z,9.30
2022-08-10T02:48:43.645Z,8.70
2022-08-10T02:52:18.395Z,8.90
2022-08-10T02:55:49.409Z,8.80
2022-08-10T02:59:23.549Z,9.10
2022-08-10T03:02:52.699Z,9.20
2022-08-10T03:06:26.975Z,8.60
2022-08-10T03:09:55.282Z,9.30
2022-08-10T03:13:24.092Z,9.40
2022-08-10T03:16:52.766Z,9.80
2022-08-10T03:20:37.155Z,9.80
2022-08-10T03:24:21.172Z,10.50
2022-08-10T03:27:55.215Z,10.10
2022-08-10T03:31:22.475Z,11.10
2022-08-10T03:34:50.253Z,11.30
2022-08-10T03:38:17.580Z,11.00
2022-08-10T03:41:53.625Z,10.60
2022-08-10T03:45:25.152Z,10.20
2022-08-10T03:48:57.979Z,10.00
2022-08-10T03:52:28.842Z,10.70
2022-08-10T03:56:28.001Z,10.80
2022-08-10T03:59:45.082Z,11.30
2022-08-10T04:03:12.888Z,11.10
2022-08-10T04:06:40.760Z,11.40
2022-08-10T04:10:08.497Z,12.50
2022-08-10T04:13:42.039Z,11.40
2022-08-10T04:17:13.789Z,11.50
2022-08-10T04:20:46.584Z,12.30
2022-08-10T04:24:26.930Z,12.60
2022-08-10T04:28:01.374Z,12.40
2022-08-10T04:31:33.003Z,12.80
2022-08-10T04:35:01.629Z,13.20
2022-08-10T04:38:31.064Z,12.60
2022-08-10T04:41:58.978Z,13.80
2022-08-10T04:45:49.612Z,13.20
2022-08-10T04:49:53.876Z,13.30
2022-08-10T04:53:00.668Z,16.10
2022-08-10T04:56:33.327Z,16.30
2022-08-10T05:00:00.390Z,17.10
2022-08-10T05:03:27.416Z,15.40
2022-08-10T05:06:54.755Z,13.90
2022-08-10T05:10:21.816Z,13.10
2022-08-10T05:13:48.834Z,13.90
2022-08-10T05:17:19.768Z,14.80
2022-08-10T05:20:50.173Z,13.20
2022-08-10T05:24:17.612Z,13.80
2022-08-10T05:27:45.802Z,14.00
2022-08-10T05:31:14.715Z,13.00
2022-08-10T05:34:51.342Z,12.80
2022-08-10T05:38:19.552Z,13.70
2022-08-10T05:41:51.091Z,13.90
2022-08-10T05:45:25.961Z,12.90
2022-08-10T05:48:56.617Z,11.60
2022-08-10T05:52:28.149Z,11.90
2022-08-10T05:55:55.879Z,10.60
2022-08-10T06:00:12.612Z,9.90
2022-08-10T06:03:12.517Z,9.50
2022-08-10T06:06:40.554Z,10.00
2022-08-10T06:10:10.719Z,9.80
2022-08-10T06:13:59.736Z,9.40
2022-08-10T06:17:42.436Z,9.20
2022-08-10T06:21:10.239Z,7.30
2022-08-10T06:25:04.582Z,7.10
2022-08-10T06:28:30.075Z,6.50
2022-08-10T06:31:59.044Z,6.00
2022-08-10T06:35:28.969Z,6.10
2022-08-10T06:39:16.773Z,6.00
2022-08-10T06:42:51.838Z,5.30
2022-08-10T06:46:21.934Z,5.30
2022-08-10T06:49:51.037Z,4.70
2022-08-10T06:53:22.654Z,4.20
2022-08-10T06:57:16.545Z,3.90
2022-08-10T07:00:44.520Z,3.70
2022-08-10T07:04:19.859Z,3.40
2022-08-10T07:08:03.311Z,4.20
2022-08-10T07:11:31.867Z,4.10
2022-08-10T07:15:03.777Z,4.80
2022-08-10T07:18:35.769Z,3.60
2022-08-10T07:22:05.142Z,3.80
2022-08-10T07:25:39.122Z,3.90
2022-08-10T07:29:09.190Z,4.50
2022-08-10T07:32:57.187Z,3.70
2022-08-10T07:36:26.930Z,3.70
2022-08-10T07:40:02.608Z,3.70
2022-08-10T07:43:35.861Z,3.10
2022-08-10T07:47:07.697Z,3.30
2022-08-10T07:50:36.144Z,2.60
2022-08-10T07:54:06.478Z,3.10
2022-08-10T07:57:39.999Z,3.00
2022-08-10T08:01:07.684Z,3.30
2022-08-10T08:04:39.419Z,3.10
2022-08-10T08:08:08.705Z,2.50
2022-08-10T08:11:38.075Z,3.00
2022-08-10T08:16:18.013Z,2.30
2022-08-10T08:24:09.976Z,1.80
2022-08-10T08:26:35.108Z,2.00
2022-08-10T08:30:03.079Z,1.90
2022-08-10T08:33:41.540Z,1.90
2022-08-10T08:38:29.781Z,2.60
2022-08-10T08:45:04.912Z,2.90
2022-08-10T08:48:53.372Z,2.60
2022-08-10T08:52:37.291Z,2.40
2022-08-10T08:56:10.489Z,2.40
2022-08-10T09:00:02.248Z,2.40
2022-08-10T09:03:46.969Z,2.70
2022-08-10T09:07:59.739Z,2.80
2022-08-10T09:11:40.219Z,2.80
2022-08-10T09:15:09.744Z,2.70
2022-08-10T09:19:04.011Z,2.30
2022-08-10T09:22:40.635Z,1.90
2022-08-10T09:26:15.664Z,2.00
2022-08-10T09:29:49.060Z,1.60
2022-08-10T09:37:14.907Z,2.20
2022-08-10T09:41:03.021Z,1.50
2022-08-10T09:44:58.081Z,1.70
2022-08-10T09:48:33.895Z,1.60
2022-08-10T09:52:11.749Z,1.90
2022-08-10T09:56:18.537Z,1.90
2022-08-10T10:00:00.002Z,1.70
2022-08-10T10:03:40.429Z,1.20
2022-08-10T10:07:10.873Z,0.90
2022-08-10T10:10:48.132Z,0.90
2022-08-10T10:14:24.258Z,0.60
2022-08-10T10:18:11.276Z,0.70
2022-08-10T10:21:54.681Z,1.80
2022-08-10T10:25:42.724Z,1.20
2022-08-10T10:29:56.608Z,1.10
2022-08-10T10:33:19.983Z,1.10
2022-08-10T10:36:49.118Z,1.10
2022-08-10T10:40:19.371Z,1.60
2022-08-10T10:43:58.266Z,1.10
2022-08-10T10:47:47.892Z,1.40
2022-08-10T10:51:23.944Z,1.50
2022-08-10T10:55:14.520Z,1.20
2022-08-10T10:58:49.347Z,1.50
2022-08-10T11:02:32.889Z,1.70
2022-08-10T11:06:11.660Z,1.20
2022-08-10T11:10:06.089Z,1.10
2022-08-10T11:14:24.500Z,1.10
2022-08-10T11:17:35.552Z,1.00
2022-08-10T11:21:13.995Z,1.20
2022-08-10T11:24:54.266Z,0.90
2022-08-10T11:28:31.061Z,0.90
2022-08-10T11:35:45.131Z,1.00
2022-08-10T11:39:20.851Z,1.50
2022-08-10T11:43:01.271Z,1.30
2022-08-10T11:46:38.831Z,1.20
2022-08-10T11:50:13.521Z,1.00
2022-08-10T11:53:53.010Z,0.90
2022-08-10T11:57:54.422Z,0.90
2022-08-10T12:01:28.318Z,0.80
2022-08-10T12:05:03.871Z,0.80
2022-08-10T12:10:04.462Z,1.00
2022-08-10T12:12:22.397Z,1.10
2022-08-10T12:16:05.117Z,1.10
2022-08-10T12:20:01.652Z,1.10
2022-08-10T12:23:40.627Z,1.00
2022-08-10T12:27:19.611Z,1.10
2022-08-10T12:30:57.272Z,0.90
2022-08-10T12:34:36.208Z,0.80
2022-08-10T12:38:17.626Z,0.90
2022-08-10T12:41:53.158Z,0.90
2022-08-10T12:45:33.270Z,1.10
2022-08-10T12:49:12.206Z,0.60
2022-08-10T12:52:50.053Z,0.90
2022-08-10T12:56:27.715Z,1.10
2022-08-10T13:00:00.470Z,2.70
2022-08-10T13:04:20.822Z,4.00
2022-08-10T13:08:03.919Z,2.30
2022-08-10T13:12:34.151Z,1.80
2022-08-10T13:15:45.680Z,1.00
2022-08-10T13:19:05.070Z,0.90
2022-08-10T13:22:36.994Z,1.00
2022-08-10T13:26:07.495Z,1.20
2022-08-10T13:29:39.276Z,0.60
2022-08-10T13:33:13.946Z,0.80
2022-08-10T13:36:45.676Z,0.80
2022-08-10T13:40:16.875Z,0.70
2022-08-10T13:43:54.199Z,1.00
2022-08-10T13:47:29.019Z,1.00
2022-08-10T13:51:03.819Z,0.80
2022-08-10T13:54:41.907Z,0.90
2022-08-10T13:58:15.764Z,1.00
2022-08-10T14:01:47.760Z,1.20
2022-08-10T14:05:28.586Z,1.00
2022-08-10T14:09:05.460Z,1.10
2022-08-10T14:12:36.573Z,0.90
2022-08-10T14:16:10.568Z,1.10
2022-08-10T14:19:44.388Z,1.00
2022-08-10T14:23:21.700Z,1.20
2022-08-10T14:26:51.777Z,1.00
2022-08-10T14:30:20.912Z,1.00
2022-08-10T14:33:54.921Z,0.90
2022-08-10T14:37:26.118Z,1.00
2022-08-10T14:40:56.896Z,0.80
2022-08-10T14:44:26.538Z,0.80
2022-08-10T14:48:01.467Z,1.00
2022-08-10T14:51:44.513Z,1.00
2022-08-10T14:55:19.545Z,0.80
2022-08-10T14:59:06.054Z,0.60
2022-08-10T15:02:52.940Z,0.80
2022-08-10T15:06:30.776Z,0.70
2022-08-10T15:10:24.004Z,0.80
2022-08-10T15:14:14.805Z,0.80
2022-08-10T15:17:48.660Z,0.60
2022-08-10T15:21:20.571Z,0.90
2022-08-10T15:25:05.291Z,0.80
2022-08-10T15:29:23.761Z,1.00
2022-08-10T15:32:41.440Z,0.90
2022-08-10T15:36:32.683Z,1.10
2022-08-10T15:40:24.805Z,1.00
2022-08-10T15:43:59.537Z,0.90
2022-08-10T15:47:45.911Z,1.20
2022-08-10T15:51:54.209Z,1.10
2022-08-10T15:55:43.191Z,1.20
2022-08-10T15:59:18.408Z,0.90
2022-08-10T16:02:53.004Z,1.20
2022-08-10T16:06:30.252Z,1.30
2022-08-10T16:10:23.980Z,1.00
2022-08-10T16:14:01.337Z,1.20
2022-08-10T16:17:29.924Z,1.30
2022-08-10T16:21:21.669Z,1.40
2022-08-10T16:24:50.976Z,1.30
2022-08-10T16:28:19.972Z,1.50
2022-08-10T16:31:55.245Z,1.50
2022-08-10T16:35:23.802Z,1.30
2022-08-10T16:38:53.895Z,1.30
2022-08-10T16:42:23.871Z,1.40
2022-08-10T16:45:54.802Z,1.40
2022-08-10T16:49:24.515Z,1.60
2022-08-10T16:52:54.806Z,1.50
2022-08-10T16:56:31.594Z,1.60
2022-08-10T17:00:00.356Z,1.30
2022-08-10T17:04:07.891Z,1.40
2022-08-10T17:07:30.572Z,1.30
2022-08-10T17:11:00.936Z,1.20
2022-08-10T17:14:34.795Z,1.60
2022-08-10T17:18:09.853Z,1.20
2022-08-10T17:21:51.503Z,1.30
2022-08-10T17:25:23.998Z,1.40
2022-08-10T17:29:53.189Z,1.50
2022-08-10T17:33:04.917Z,1.60
2022-08-10T17:36:37.599Z,1.50
2022-08-10T17:40:09.154Z,1.30
2022-08-10T17:44:00.763Z,1.60
2022-08-10T17:47:27.776Z,1.40
2022-08-10T17:50:59.483Z,1.70
2022-08-10T17:54:31.633Z,1.30
2022-08-10T17:58:01.884Z,1.30
2022-08-10T18:01:41.346Z,1.30
2022-08-10T18:05:20.948Z,1.60
2022-08-10T18:09:00.742Z,1.10
2022-08-10T18:12:36.528Z,1.30
2022-08-10T18:16:07.755Z,1.40
2022-08-10T18:19:38.126Z,1.20
2022-08-10T18:23:06.632Z,1.90
2022-08-10T18:26:39.483Z,1.40
2022-08-10T18:30:10.682Z,1.60
2022-08-10T18:33:44.455Z,1.60
2022-08-10T18:37:20.250Z,1.50
2022-08-10T18:40:59.956Z,1.60
2022-08-10T18:44:34.528Z,2.10
2022-08-10T18:48:08.693Z,2.30
2022-08-10T18:51:46.599Z,1.90
2022-08-10T18:55:24.415Z,2.70
2022-08-10T18:59:10.662Z,2.20
2022-08-10T19:02:56.485Z,2.00
2022-08-10T19:06:56.211Z,1.90
2022-08-10T19:10:36.594Z,1.60
2022-08-10T19:14:09.923Z,1.80
2022-08-10T19:18:02.839Z,1.70
2022-08-10T19:21:39.262Z,1.60
2022-08-10T19:25:14.532Z,1.70
2022-08-10T19:28:49.622Z,1.70
2022-08-10T19:32:29.152Z,1.90
2022-08-10T19:36:13.859Z,1.70
2022-08-10T19:40:00.941Z,1.60
2022-08-10T19:44:01.234Z,1.50
2022-08-10T19:47:33.912Z,2.00
2022-08-10T19:51:08.178Z,2.00
2022-08-10T19:54:47.374Z,2.40
2022-08-10T19:58:22.555Z,2.00
2022-08-10T20:01:55.177Z,2.40
2022-08-10T20:05:33.311Z,2.20
2022-08-10T20:09:07.021Z,2.20
2022-08-10T20:12:43.063Z,2.10
2022-08-10T20:16:21.389Z,2.00
2022-08-10T20:19:55.488Z,2.40
2022-08-10T20:23:26.952Z,2.20
2022-08-10T20:27:13.144Z,2.70
2022-08-10T20:30:54.811Z,2.60
2022-08-10T20:34:26.179Z,2.30
2022-08-10T20:38:03.650Z,2.30
2022-08-10T20:41:43.945Z,2.20
2022-08-10T20:45:22.993Z,2.20
2022-08-10T20:48:58.842Z,2.10
2022-08-10T20:52:30.894Z,2.10
2022-08-10T20:56:10.575Z,1.90
2022-08-10T21:00:04.473Z,2.30
2022-08-10T21:03:51.534Z,2.70
2022-08-10T21:08:00.356Z,2.10
2022-08-10T21:11:39.542Z,1.90
2022-08-10T21:15:22.697Z,2.10
2022-08-10T21:19:01.656Z,2.30
2022-08-10T21:22:35.213Z,2.00
2022-08-10T21:26:10.227Z,1.90
2022-08-10T21:29:55.835Z,1.90
2022-08-10T21:33:35.083Z,1.90
2022-08-10T21:37:09.262Z,2.10
2022-08-10T21:40:42.497Z,2.10
2022-08-10T21:45:08.175Z,2.20
2022-08-10T21:49:23.058Z,2.60
2022-08-10T21:53:18.682Z,2.10
2022-08-10T21:57:09.912Z,2.00
2022-08-10T22:05:04.792Z,2.10
2022-08-10T22:08:57.672Z,2.20
2022-08-10T22:12:48.889Z,2.30
2022-08-10T22:16:48.480Z,2.60
2022-08-10T22:20:42.988Z,2.50
2022-08-10T22:28:48.560Z,2.80
2022-08-10T22:31:29.132Z,2.70
2022-08-10T22:32:42.988Z,2.60
2022-08-10T22:40:32.156Z,2.30
2022-08-10T22:44:27.366Z,2.70
2022-08-10T22:48:17.020Z,3.00
2022-08-10T22:52:00.105Z,2.90
2022-08-10T22:55:50.000Z,3.00
2022-08-10T22:59:27.593Z,3.30
2022-08-10T23:03:02.408Z,4.20
2022-08-10T23:06:32.574Z,4.10
2022-08-10T23:10:05.983Z,4.30
2022-08-10T23:13:37.223Z,3.60
2022-08-10T23:18:01.072Z,4.10
2022-08-10T23:21:19.972Z,4.20
2022-08-10T23:24:57.758Z,4.50
2022-08-10T23:28:38.780Z,4.40
2022-08-10T23:32:16.190Z,4.60
2022-08-10T23:36:05.614Z,4.80
2022-08-10T23:39:42.810Z,5.10
2022-08-10T23:43:16.871Z,5.50
2022-08-10T23:46:46.760Z,5.20
2022-08-10T23:50:17.540Z,5.80
2022-08-10T23:53:48.199Z,5.60
2022-08-10T23:57:20.697Z,4.90
